createdAt,value
2022-11-03T18:17:02.883Z,61.90
2022-11-03T18:19:48.463Z,61.80
2022-11-03T18:22:34.004Z,61.30
2022-11-03T18:25:21.360Z,61.30
2022-11-03T18:28:07.286Z,61.20
2022-11-03T18:31:00.257Z,61.00
2022-11-03T18:33:47.283Z,61.00
2022-11-03T18:36:35.913Z,60.40
2022-11-03T18:43:00.136Z,60.30
2022-11-03T18:45:55.194Z,60.30
2022-11-03T18:48:40.588Z,60.40
2022-11-03T18:51:27.014Z,60.50
2022-11-03T18:57:27.839Z,60.30
2022-11-03T19:10:25.301Z,60.50
2022-11-03T19:27:02.328Z,61.20
2022-11-03T19:36:26.213Z,61.70
2022-11-03T19:39:43.833Z,61.80
2022-11-03T19:46:48.211Z,62.80
2022-11-03T19:49:34.965Z,63.50
2022-11-03T19:52:51.226Z,64.10
2022-11-03T20:06:41.030Z,65.90
2022-11-03T20:12:22.496Z,66.80
2022-11-03T20:15:20.177Z,66.70
2022-11-03T20:18:08.605Z,67.20
2022-11-03T20:20:56.854Z,67.10
2022-11-03T20:23:42.743Z,67.10
2022-11-03T20:26:31.413Z,67.10
2022-11-03T20:29:18.857Z,67.50
2022-11-03T20:32:04.255Z,67.50
2022-11-03T20:34:51.115Z,67.70
2022-11-03T20:37:36.979Z,68.10
2022-11-03T20:43:42.320Z,68.70
2022-11-03T20:46:32.722Z,68.90
2022-11-03T20:49:18.329Z,69.20
2022-11-03T20:52:09.015Z,69.70
2022-11-03T20:54:54.377Z,69.60
2022-11-03T20:57:40.372Z,70.10
2022-11-03T21:00:31.577Z,70.60
2022-11-03T21:03:37.799Z,70.70
2022-11-03T21:06:26.654Z,71.30
2022-11-03T21:09:13.809Z,71.50
2022-11-03T21:12:01.492Z,72.00
2022-11-03T21:15:05.617Z,72.30
2022-11-03T21:18:09.902Z,72.50
2022-11-03T21:20:55.819Z,73.20
2022-11-03T21:23:41.666Z,73.30
2022-11-03T21:26:30.428Z,73.70
2022-11-03T21:29:27.451Z,74.00
2022-11-03T21:32:18.723Z,74.90
2022-11-03T21:35:22.913Z,75.10
2022-11-03T21:38:08.957Z,75.60
2022-11-03T21:41:14.735Z,75.80
2022-11-03T21:44:14.886Z,76.00
2022-11-03T21:47:02.643Z,76.20
2022-11-03T21:49:48.789Z,77.20
2022-11-03T21:52:35.166Z,76.70
2022-11-03T21:55:22.644Z,76.80
2022-11-03T21:58:09.109Z,76.80
2022-11-03T22:00:55.055Z,76.70
2022-11-03T22:03:41.016Z,76.80
2022-11-03T22:06:26.724Z,76.60
2022-11-03T22:09:13.401Z,76.10
2022-11-03T22:11:59.181Z,75.80
2022-11-03T22:15:03.475Z,75.60
2022-11-03T22:17:49.581Z,75.50
2022-11-03T22:20:57.778Z,75.30
2022-11-03T22:24:02.056Z,75.40
2022-11-03T22:26:56.189Z,75.00
2022-11-03T22:30:00.625Z,75.00
2022-11-03T22:32:54.970Z,74.90
2022-11-03T22:35:58.894Z,75.00
2022-11-03T22:39:03.129Z,75.00
2022-11-03T22:42:07.778Z,76.10
2022-11-03T22:45:12.155Z,75.60
2022-11-03T22:47:57.918Z,75.70
2022-11-03T22:50:44.241Z,75.90
2022-11-03T22:53:50.455Z,76.20
2022-11-03T22:56:37.110Z,76.40
2022-11-03T22:59:24.637Z,76.40
2022-11-03T23:02:09.945Z,77.20
2022-11-03T23:04:55.586Z,76.60
2022-11-03T23:07:41.688Z,76.90
2022-11-03T23:10:28.503Z,76.90
2022-11-03T23:13:13.963Z,77.30
2022-11-03T23:15:59.474Z,77.50
2022-11-03T23:19:04.498Z,77.90
2022-11-03T23:21:52.450Z,78.50
2022-11-03T23:24:56.362Z,79.30
2022-11-03T23:27:41.902Z,79.70
2022-11-03T23:30:27.679Z,80.30
2022-11-03T23:36:17.706Z,81.40
2022-11-03T23:39:06.649Z,81.60
2022-11-03T23:41:52.188Z,81.80
2022-11-03T23:44:57.081Z,83.10
2022-11-03T23:48:01.198Z,84.90
2022-11-03T23:50:46.748Z,85.50
2022-11-03T23:53:32.112Z,86.50
2022-11-03T23:56:39.941Z,86.40
2022-11-03T23:59:26.815Z,86.40
